Time;durP1;ratioP1;P1;durP2;ratioP2;P2;SDS_P1;SDS_P2;PMS_P1;PMS_P2;Temp;Humidity;BMP_temperature;BMP_pressure;BME280_temperature;BME280_humidity;BME280_pressure;Samples;Min_cycle;Max_cycle;Signal;HPM_P1;HPM_P2
2022/05/28 00:00:51;;;;;;;4.30;2.20;;;;;;;20.07;57.20;98760.78;5045733;28;20204;-82
2022/05/28 00:03:18;;;;;;;3.97;2.20;;;;;;;20.15;56.43;98762.44;5046089;28;20234;-82
2022/05/28 00:05:46;;;;;;;3.97;2.10;;;;;;;20.20;56.63;98754.13;5045448;28;20227;-82
2022/05/28 00:08:13;;;;;;;2.40;2.20;;;;;;;20.24;56.21;98750.19;5046063;28;20241;-82
2022/05/28 00:10:40;;;;;;;3.00;1.97;;;;;;;20.29;55.80;98750.44;5045775;28;20209;-82
2022/05/28 00:13:07;;;;;;;3.67;2.00;;;;;;;20.34;53.78;98750.72;5045742;28;20227;-82
2022/05/28 00:15:34;;;;;;;4.00;2.43;;;;;;;20.37;54.06;98755.53;5045704;28;20210;-82
2022/05/28 00:18:01;;;;;;;2.40;2.00;;;;;;;20.44;55.42;98753.81;5045311;28;20210;-82
2022/05/28 00:20:28;;;;;;;5.80;2.20;;;;;;;20.49;56.69;98758.47;5045655;28;20208;-82
2022/05/28 00:22:57;;;;;;;2.50;2.20;;;;;;;20.51;56.83;98754.72;5045475;28;20213;-82
2022/05/28 00:25:23;;;;;;;2.63;1.97;;;;;;;20.51;56.99;98772.88;5045758;28;20606;-82
2022/05/28 00:27:50;;;;;;;3.63;2.47;;;;;;;20.57;56.36;98772.19;5045929;28;20212;-82
2022/05/28 00:30:18;;;;;;;5.10;2.00;;;;;;;20.57;56.73;98772.19;5045601;28;20210;-82
2022/05/28 00:32:44;;;;;;;4.73;2.03;;;;;;;20.62;56.77;98769.03;5064981;28;20224;-82
2022/05/28 00:35:15;;;;;;;2.10;1.90;;;;;;;20.52;58.05;98758.94;5065599;28;20236;-82
2022/05/28 00:37:42;;;;;;;2.73;2.10;;;;;;;20.41;57.96;98755.97;5065872;28;20209;-82
2022/05/28 00:40:16;;;;;;;4.33;2.50;;;;;;;20.34;58.55;98750.72;5065600;28;20244;-82
2022/05/28 00:42:43;;;;;;;3.33;2.30;;;;;;;20.21;59.49;98753.13;5066032;28;20205;-82
2022/05/28 00:45:11;;;;;;;2.73;2.13;;;;;;;20.16;59.12;98748.50;5065375;28;20228;-82
2022/05/28 00:47:50;;;;;;;2.63;2.30;;;;;;;20.07;59.69;98745.19;5065765;28;20214;-82
2022/05/28 00:50:18;;;;;;;2.90;2.40;;;;;;;19.93;60.79;98758.19;5066207;28;20212;-82
2022/05/28 00:52:45;;;;;;;2.90;2.40;;;;;;;19.87;60.66;98759.69;5065971;28;20209;-82
2022/05/28 00:55:14;;;;;;;5.97;2.60;;;;;;;19.79;60.87;98755.38;5065250;28;20266;-82
2022/05/28 00:57:43;;;;;;;3.27;2.20;;;;;;;19.77;61.03;98759.13;5065698;28;20205;-82
2022/05/28 01:00:13;;;;;;;2.47;2.07;;;;;;;19.64;61.74;98765.72;5065378;28;20310;-82
2022/05/28 01:02:48;;;;;;;3.67;2.30;;;;;;;19.62;61.86;98761.69;5066100;28;20212;-81
2022/05/28 01:05:22;;;;;;;3.10;2.17;;;;;;;19.63;61.57;98763.28;5069366;28;20318;-82
2022/05/28 01:08:01;;;;;;;3.27;2.10;;;;;;;19.58;61.59;98760.44;5068797;28;20567;-82
2022/05/28 01:10:39;;;;;;;8.97;2.40;;;;;;;19.45;62.51;98755.84;5069233;28;20235;-82
2022/05/28 01:13:13;;;;;;;3.30;2.40;;;;;;;19.42;62.04;98757.00;5069010;28;20214;-82
2022/05/28 01:15:45;;;;;;;3.23;2.40;;;;;;;19.40;62.80;98748.59;5068972;28;20214;-82
2022/05/28 01:18:17;;;;;;;2.83;2.30;;;;;;;19.35;63.29;98739.75;5069151;28;20633;-82
2022/05/28 01:20:48;;;;;;;2.60;2.30;;;;;;;19.34;62.93;98738.13;5069069;28;20214;-82
2022/05/28 01:23:24;;;;;;;2.47;2.27;;;;;;;19.26;63.65;98731.22;5069177;28;20227;-82
2022/05/28 01:26:08;;;;;;;4.17;2.37;;;;;;;19.23;63.35;98732.38;5068762;28;20746;-82
2022/05/28 01:28:41;;;;;;;4.73;2.27;;;;;;;19.25;63.82;98728.81;5068567;28;20673;-82
2022/05/28 01:31:09;;;;;;;2.63;2.10;;;;;;;19.25;63.63;98718.44;5069054;28;20203;-82
2022/05/28 01:33:37;;;;;;;2.40;2.20;;;;;;;19.19;63.80;98718.16;5068492;28;20230;-82
2022/05/28 01:36:06;;;;;;;3.47;2.40;;;;;;;19.07;63.97;98731.69;5068893;28;20211;-82
2022/05/28 01:38:36;;;;;;;3.23;2.33;;;;;;;19.05;64.15;98737.03;5068495;28;20233;-82
2022/05/28 01:41:06;;;;;;;3.70;2.50;;;;;;;19.05;63.93;98734.44;5068783;28;20217;-82
2022/05/28 01:43:38;;;;;;;3.70;2.47;;;;;;;19.05;64.44;98726.69;5068707;28;20237;-82
2022/05/28 01:46:06;;;;;;;5.30;2.40;;;;;;;19.03;64.38;98741.63;5068495;28;20712;-83
2022/05/28 01:48:34;;;;;;;6.07;2.70;;;;;;;18.97;64.02;98748.28;5068342;28;20239;-82
2022/05/28 01:51:03;;;;;;;5.90;2.40;;;;;;;19.00;63.94;98741.97;5068869;28;20626;-82
2022/05/28 01:56:16;;;;;;;4.87;2.13;;;;;;;18.99;64.75;98735.16;5067824;28;20198;-82
2022/05/28 01:58:44;;;;;;;4.30;2.33;;;;;;;18.97;64.38;98737.13;5068388;28;20793;-82
2022/05/28 02:01:11;;;;;;;3.07;2.40;;;;;;;18.94;64.53;98737.47;5068284;28;20209;-82
2022/05/28 02:03:45;;;;;;;2.73;2.30;;;;;;;18.98;64.82;98743.91;5068119;28;20233;-82
2022/05/28 02:06:12;;;;;;;2.70;2.33;;;;;;;19.02;65.04;98739.97;5068222;28;20232;-82
2022/05/28 02:08:43;;;;;;;7.10;3.07;;;;;;;19.01;64.49;98751.34;5068223;28;20249;-82
2022/05/28 02:11:13;;;;;;;2.63;2.20;;;;;;;19.03;64.77;98746.78;5068077;28;20213;-82
2022/05/28 02:13:54;;;;;;;2.83;2.40;;;;;;;19.04;64.78;98758.75;5067650;28;20539;-82
2022/05/28 02:16:29;;;;;;;2.77;2.20;;;;;;;19.10;65.07;98758.06;5068367;28;20221;-83
2022/05/28 02:19:00;;;;;;;3.20;2.47;;;;;;;19.15;64.83;98755.78;5067768;28;20729;-82
2022/05/28 02:21:34;;;;;;;3.10;2.20;;;;;;;19.15;65.22;98758.34;5067701;28;20212;-82
2022/05/28 02:24:05;;;;;;;2.80;2.23;;;;;;;19.19;65.18;98761.41;5067811;28;20233;-82
2022/05/28 02:26:38;;;;;;;4.73;2.23;;;;;;;19.12;66.05;98756.13;5067769;28;20233;-81
2022/05/28 02:29:07;;;;;;;3.37;2.37;;;;;;;19.09;66.29;98761.66;5067660;28;20678;-81
2022/05/28 02:31:35;;;;;;;4.73;2.57;;;;;;;19.09;66.12;98755.66;5067476;28;20654;-82
2022/05/28 02:34:03;;;;;;;3.57;2.53;;;;;;;19.13;66.16;98772.47;5067558;28;20236;-81
2022/05/28 02:36:31;;;;;;;3.40;2.30;;;;;;;19.12;66.14;98773.47;5067548;28;20444;-82
2022/05/28 02:38:58;;;;;;;2.90;2.37;;;;;;;19.12;66.02;98783.81;5067361;28;20226;-82
2022/05/28 02:41:25;;;;;;;4.37;2.33;;;;;;;19.12;66.54;98776.84;5067555;28;20224;-82
2022/05/28 02:43:52;;;;;;;2.90;2.40;;;;;;;19.11;66.43;98788.22;5067572;28;20638;-82
2022/05/28 02:46:21;;;;;;;6.97;2.40;;;;;;;19.06;65.95;98790.50;5067311;28;20329;-81
2022/05/28 02:48:48;;;;;;;4.80;2.47;;;;;;;19.08;65.69;98791.16;5067413;28;20230;-82
2022/05/28 02:51:17;;;;;;;3.77;2.40;;;;;;;19.00;65.78;98786.00;5067390;28;20218;-82
2022/05/28 02:53:44;;;;;;;2.60;2.27;;;;;;;18.87;66.45;98794.31;5067055;28;20321;-81
2022/05/28 02:56:11;;;;;;;4.33;2.53;;;;;;;18.83;66.62;98798.25;5067307;28;20661;-81
2022/05/28 02:58:38;;;;;;;2.97;2.33;;;;;;;18.71;67.17;98805.56;5067342;28;20235;-81
2022/05/28 03:01:19;;;;;;;4.13;2.63;;;;;;;18.80;67.48;98805.56;5067077;28;20214;-81
2022/05/28 03:03:47;;;;;;;3.77;3.03;;;;;;;18.61;69.40;98820.50;5067456;28;20597;-81
2022/05/28 03:06:14;;;;;;;3.77;3.37;;;;;;;18.47;70.99;98813.44;5067059;28;20239;-81
2022/05/28 03:08:41;;;;;;;4.20;3.37;;;;;;;18.26;72.21;98817.38;5066911;28;20350;-81
2022/05/28 03:11:08;;;;;;;6.10;3.23;;;;;;;18.15;72.84;98820.34;5066908;28;20211;-81
2022/05/28 03:13:35;;;;;;;3.30;3.00;;;;;;;18.08;73.71;98814.22;5066765;28;20239;-81
2022/05/28 03:16:02;;;;;;;3.73;3.10;;;;;;;18.08;73.68;98820.19;5066989;28;20235;-82
2022/05/28 03:18:29;;;;;;;4.40;3.33;;;;;;;18.09;74.14;98816.66;5066716;28;20227;-81
2022/05/28 03:20:57;;;;;;;5.60;3.10;;;;;;;18.03;74.77;98822.47;5066438;28;20701;-82
2022/05/28 03:23:24;;;;;;;5.80;3.30;;;;;;;18.04;74.75;98825.88;5066772;28;20723;-81
2022/05/28 03:25:51;;;;;;;4.60;3.20;;;;;;;17.96;75.23;98820.72;5065790;28;20494;-82
2022/05/28 03:28:18;;;;;;;4.20;3.27;;;;;;;17.96;75.22;98815.53;5066317;28;20677;-82
2022/05/28 03:30:45;;;;;;;5.07;3.40;;;;;;;17.95;75.56;98824.25;5066356;28;20235;-82
2022/05/28 03:33:12;;;;;;;4.73;3.17;;;;;;;18.01;75.60;98813.28;5066603;28;20231;-81
2022/05/28 03:35:40;;;;;;;5.83;3.40;;;;;;;18.00;75.86;98822.78;5066457;28;20234;-82
2022/05/28 03:38:09;;;;;;;4.73;3.03;;;;;;;18.01;75.80;98821.03;5066477;28;20223;-81
2022/05/28 03:40:35;;;;;;;5.23;3.23;;;;;;;17.96;75.66;98825.88;5066423;28;20207;-81
2022/05/28 03:43:02;;;;;;;5.47;3.30;;;;;;;18.01;75.78;98836.56;5066296;28;20241;-82
2022/05/28 03:45:29;;;;;;;4.40;3.10;;;;;;;18.11;75.99;98829.41;5065812;28;20211;-81
2022/05/28 03:47:57;;;;;;;4.10;2.97;;;;;;;18.21;75.86;98829.22;5066122;28;20640;-81
2022/05/28 03:50:23;;;;;;;4.53;3.10;;;;;;;18.28;75.71;98836.16;5065888;28;20302;-81
2022/05/28 03:52:50;;;;;;;3.63;3.00;;;;;;;18.38;75.32;98840.31;5066004;28;20207;-81
2022/05/28 03:55:19;;;;;;;5.93;3.13;;;;;;;18.43;75.29;98849.22;5065913;28;20212;-82
2022/05/28 03:57:47;;;;;;;4.33;3.10;;;;;;;18.40;76.01;98853.91;5065896;28;20211;-81
2022/05/28 04:00:16;;;;;;;5.03;3.23;;;;;;;18.47;76.05;98844.50;5066196;28;20219;-81
2022/05/28 04:02:42;;;;;;;5.37;3.33;;;;;;;18.53;75.39;98859.38;5066048;28;20680;-81
2022/05/28 04:05:10;;;;;;;4.30;2.87;;;;;;;18.46;75.81;98859.22;5065851;28;20224;-82
2022/05/28 04:07:37;;;;;;;7.43;3.13;;;;;;;18.48;76.42;98869.44;5066084;28;20335;-82
2022/05/28 04:10:05;;;;;;;8.17;3.03;;;;;;;18.47;77.20;98876.41;5065696;28;20235;-81
2022/05/28 04:12:33;;;;;;;4.33;3.10;;;;;;;18.43;77.79;98879.47;5065498;28;20706;-81
2022/05/28 04:15:00;;;;;;;5.43;3.00;;;;;;;18.40;77.78;98879.81;5065465;28;20235;-82
2022/05/28 04:17:27;;;;;;;5.07;2.83;;;;;;;18.37;78.09;98885.31;5065693;28;20218;-82
2022/05/28 04:19:54;;;;;;;8.83;3.10;;;;;;;18.33;79.07;98885.66;5065513;28;20263;-83
2022/05/28 04:22:20;;;;;;;4.17;3.20;;;;;;;18.31;79.53;98881.59;5065459;28;20705;-82
2022/05/28 04:24:47;;;;;;;9.07;3.70;;;;;;;18.32;80.17;98878.03;5065149;28;20232;-82
2022/05/28 04:27:14;;;;;;;7.73;3.77;;;;;;;18.30;80.55;98880.81;5065336;28;20782;-82
2022/05/28 04:29:42;;;;;;;6.10;3.70;;;;;;;18.24;82.35;98871.13;5065146;28;20231;-83
2022/05/28 04:32:10;;;;;;;5.90;4.10;;;;;;;18.19;83.47;98878.56;5065737;28;20212;-86
2022/05/28 04:34:36;;;;;;;4.97;3.70;;;;;;;18.18;85.06;98869.19;5065407;28;20231;-85
2022/05/28 04:37:04;;;;;;;7.63;4.00;;;;;;;18.16;86.40;98873.72;5065502;28;20606;-85
2022/05/28 04:39:30;;;;;;;5.40;3.87;;;;;;;18.15;87.67;98871.28;5069137;28;20647;-85
2022/05/28 04:41:57;;;;;;;7.73;4.07;;;;;;;18.14;88.87;98859.31;5069399;28;20748;-87
2022/05/28 04:44:24;;;;;;;7.73;4.30;;;;;;;18.09;89.77;98854.63;5069385;28;20258;-86
2022/05/28 04:46:53;;;;;;;9.53;4.33;;;;;;;18.10;90.77;98861.44;5069126;28;20227;-88
2022/05/28 04:49:19;;;;;;;6.60;4.33;;;;;;;18.06;91.39;98852.38;5069399;28;20325;-86
2022/05/28 04:51:46;;;;;;;8.80;4.90;;;;;;;18.11;92.07;98844.94;5069592;28;20202;-87
2022/05/28 04:54:13;;;;;;;6.27;4.67;;;;;;;18.18;92.32;98842.47;5069266;28;20620;-85
2022/05/28 04:56:40;;;;;;;5.40;4.47;;;;;;;18.17;93.31;98844.25;5068986;28;20238;-85
2022/05/28 04:59:07;;;;;;;6.00;4.53;;;;;;;18.18;92.80;98830.38;5068928;28;20228;-86
2022/05/28 05:01:36;;;;;;;8.80;4.80;;;;;;;18.29;92.85;98844.72;5069106;28;20209;-83
2022/05/28 05:04:05;;;;;;;6.37;4.73;;;;;;;18.35;93.32;98853.59;5069079;28;20480;-85
2022/05/28 05:06:32;;;;;;;8.30;4.47;;;;;;;18.45;94.31;98856.81;5068943;28;20326;-84
2022/05/28 05:08:59;;;;;;;11.10;4.77;;;;;;;18.47;94.30;98862.63;5069006;28;20224;-84
2022/05/28 05:11:26;;;;;;;6.23;4.50;;;;;;;18.45;94.98;98857.63;5068691;28;20641;-84
2022/05/28 05:13:53;;;;;;;6.20;4.63;;;;;;;18.50;96.14;98855.34;5068615;28;20231;-84
2022/05/28 05:16:20;;;;;;;6.73;4.50;;;;;;;18.55;96.16;98852.25;5068752;28;20217;-84
2022/05/28 05:18:47;;;;;;;7.20;4.90;;;;;;;18.64;95.66;98848.63;5068939;28;20233;-83
2022/05/28 05:21:15;;;;;;;7.33;4.80;;;;;;;18.67;95.72;98840.53;5068737;28;20213;-84
2022/05/28 05:23:44;;;;;;;8.77;4.77;;;;;;;18.75;95.35;98830.16;5068830;28;20234;-84
2022/05/28 05:26:11;;;;;;;7.63;4.60;;;;;;;18.78;95.32;98822.06;5068252;28;20298;-84
2022/05/28 05:28:38;;;;;;;7.90;5.20;;;;;;;18.92;95.51;98827.50;5068831;28;20237;-84
2022/05/28 05:31:05;;;;;;;9.67;4.87;;;;;;;19.01;96.94;98826.47;5068912;28;20644;-85
2022/05/28 05:33:32;;;;;;;14.53;5.53;;;;;;;19.04;95.41;98830.50;5068555;28;20257;-85
2022/05/28 05:35:59;;;;;;;7.57;5.03;;;;;;;19.29;96.27;98829.38;5068570;28;20557;-85
2022/05/28 05:38:28;;;;;;;8.43;5.00;;;;;;;19.41;96.33;98816.81;5068269;28;20243;-85
2022/05/28 05:40:55;;;;;;;8.47;5.40;;;;;;;19.58;97.14;98813.09;5068310;28;20591;-85
2022/05/28 05:43:21;;;;;;;8.80;5.00;;;;;;;19.73;95.67;98799.41;5068020;28;20238;-85
2022/05/28 05:45:52;;;;;;;9.23;5.30;;;;;;;19.94;95.53;98796.09;5068152;28;20646;-86
2022/05/28 05:48:20;;;;;;;9.60;5.10;;;;;;;20.16;94.90;98787.44;5067663;28;20284;-85
2022/05/28 05:50:48;;;;;;;7.93;4.57;;;;;;;20.24;93.38;98792.50;5068217;28;20665;-83
2022/05/28 05:53:15;;;;;;;9.63;4.90;;;;;;;20.45;95.06;98794.41;5068235;28;20235;-87
2022/05/28 05:55:43;;;;;;;7.53;4.93;;;;;;;20.64;93.63;98805.22;5068046;28;20691;-86
2022/05/28 05:58:10;;;;;;;11.23;5.10;;;;;;;20.70;91.45;98807.09;5066711;28;20231;-86
2022/05/28 06:00:39;;;;;;;10.53;5.13;;;;;;;21.06;92.34;98803.66;5067565;28;20216;-85
2022/05/28 06:03:07;;;;;;;11.33;4.50;;;;;;;21.26;89.03;98791.63;5067718;28;20508;-85
2022/05/28 06:05:35;;;;;;;10.67;5.80;;;;;;;21.45;88.13;98805.84;5067762;28;20208;-89
2022/05/28 06:08:01;;;;;;;17.13;5.73;;;;;;;21.82;88.42;98802.13;5065794;28;20761;-83
2022/05/28 06:10:28;;;;;;;9.33;4.63;;;;;;;22.16;86.00;98803.13;5063212;28;20210;-87
2022/05/28 06:12:57;;;;;;;11.47;4.83;;;;;;;22.27;84.21;98800.00;5064737;28;20664;-85
2022/05/28 06:15:23;;;;;;;13.60;6.20;;;;;;;22.43;84.31;98783.25;5064743;28;20219;-83
2022/05/28 06:17:50;;;;;;;15.83;6.70;;;;;;;22.69;83.57;98772.13;5065279;28;20220;-83
2022/05/28 06:20:17;;;;;;;14.67;5.43;;;;;;;23.09;81.53;98781.81;5066387;28;20218;-83
2022/05/28 06:22:44;;;;;;;10.95;4.70;;;;;;;23.49;80.30;98778.22;5067005;28;20217;-82
2022/05/28 06:25:11;;;;;;;13.10;4.43;;;;;;;23.75;75.70;98768.00;5066014;28;20276;-84
2022/05/28 06:27:38;;;;;;;8.87;4.30;;;;;;;23.80;74.24;98752.53;5066260;28;20716;-82
2022/05/28 06:30:08;;;;;;;9.60;4.40;;;;;;;24.14;72.93;98749.63;5066095;28;20218;-83
2022/05/28 06:32:35;;;;;;;10.77;4.18;;;;;;;24.60;73.50;98742.59;5066344;28;20268;-82
2022/05/28 06:35:02;;;;;;;12.43;4.22;;;;;;;24.96;69.61;98735.91;5065813;28;20239;-83
2022/05/28 06:37:29;;;;;;;9.15;4.00;;;;;;;25.39;69.44;98737.81;5064103;28;20261;-83
2022/05/28 06:39:56;;;;;;;12.15;4.30;;;;;;;25.37;69.23;98743.28;5065714;28;20624;-82
2022/05/28 06:42:23;;;;;;;9.13;3.75;;;;;;;25.61;65.95;98764.41;5065648;28;20210;-83
2022/05/28 06:44:50;;;;;;;9.32;4.05;;;;;;;25.94;66.58;98780.59;5065775;28;20237;-84
2022/05/28 06:47:18;;;;;;;12.23;4.00;;;;;;;26.18;64.25;98796.50;5065708;28;20743;-85
2022/05/28 06:51:01;;;;;;;9.38;4.10;;;;;;;26.31;67.44;98793.69;5065491;28;20230;-81
2022/05/28 06:52:32;;;;;;;15.52;3.92;;;;;;;26.22;63.23;98781.91;5065912;28;20211;-85
2022/05/28 06:54:59;;;;;;;11.80;4.47;;;;;;;26.22;62.71;98766.19;5065678;28;20234;-83
2022/05/28 06:57:26;;;;;;;14.60;4.18;;;;;;;26.42;65.55;98772.00;5065845;28;20214;-83
2022/05/28 06:59:53;;;;;;;13.75;4.00;;;;;;;26.68;65.09;98780.56;5065252;28;20692;-81
2022/05/28 07:02:22;;;;;;;12.57;3.92;;;;;;;26.81;63.38;98790.84;5065053;28;20603;-81
2022/05/28 07:04:49;;;;;;;13.63;4.05;;;;;;;26.90;64.38;98793.97;5064800;28;20230;-83
2022/05/28 07:07:16;;;;;;;15.50;4.50;;;;;;;26.81;63.15;98785.59;5065586;28;20245;-82
2022/05/28 07:09:42;;;;;;;9.55;4.03;;;;;;;26.66;66.47;98790.47;5065288;28;20237;-84
2022/05/28 07:12:10;;;;;;;10.32;4.00;;;;;;;26.70;65.49;98796.06;5065420;28;20293;-83
2022/05/28 07:14:37;;;;;;;14.98;4.75;;;;;;;26.81;66.89;98790.84;5065100;28;20237;-83
2022/05/28 07:17:04;;;;;;;21.00;5.82;;;;;;;26.93;65.75;98793.50;5044797;28;20733;-82
2022/05/28 07:19:32;;;;;;;16.23;3.92;;;;;;;27.06;64.50;98795.16;5045182;28;20478;-82
2022/05/28 07:21:59;;;;;;;13.02;3.72;;;;;;;27.16;63.82;98803.28;5045432;28;20234;-83
2022/05/28 07:24:26;;;;;;;11.40;3.55;;;;;;;26.93;62.55;98809.25;5045110;28;20320;-83
2022/05/28 07:26:53;;;;;;;12.30;3.65;;;;;;;27.03;63.31;98803.47;5044612;28;20235;-84
2022/05/28 07:29:21;;;;;;;13.35;3.90;;;;;;;27.05;64.06;98798.78;5045338;28;20223;-82
2022/05/28 07:31:48;;;;;;;12.85;4.32;;;;;;;27.06;64.28;98792.53;5044543;28;20708;-81
2022/05/28 07:34:15;;;;;;;11.55;3.75;;;;;;;27.18;63.93;98789.97;5044632;28;20253;-83
2022/05/28 07:36:43;;;;;;;11.85;4.50;;;;;;;27.21;63.28;98785.06;5044830;28;20589;-82
2022/05/28 07:39:10;;;;;;;10.02;3.65;;;;;;;27.30;62.83;98790.78;5045040;28;20219;-82
2022/05/28 07:41:37;;;;;;;10.40;4.05;;;;;;;27.38;62.96;98793.06;5044795;28;20211;-82
2022/05/28 07:44:05;;;;;;;18.08;4.20;;;;;;;27.58;64.12;98792.72;5044531;28;20238;-81
2022/05/28 07:46:33;;;;;;;10.63;3.88;;;;;;;27.53;62.84;98793.41;5044882;28;20211;-82
2022/05/28 07:49:02;;;;;;;30.13;10.23;;;;;;;27.53;62.91;98798.66;5044242;28;20243;-82
2022/05/28 07:51:29;;;;;;;47.88;28.52;;;;;;;27.78;62.97;98800.28;5049023;28;20669;-81
2022/05/28 07:53:58;;;;;;;15.15;6.15;;;;;;;27.98;62.01;98797.28;5044846;28;20227;-81
2022/05/28 07:56:25;;;;;;;13.50;4.45;;;;;;;28.18;60.63;98791.66;5044516;28;20212;-81
2022/05/28 07:58:54;;;;;;;17.85;8.95;;;;;;;28.27;59.12;98792.88;5044372;28;20231;-81
2022/05/28 08:01:22;;;;;;;14.82;4.20;;;;;;;28.82;58.77;98786.28;5044620;28;20219;-81
2022/05/28 08:03:49;;;;;;;13.00;7.13;;;;;;;29.17;54.28;98790.59;5044670;28;20238;-84
2022/05/28 08:06:16;;;;;;;14.02;4.00;;;;;;;29.43;53.92;98783.88;5043258;28;20211;-82
2022/05/28 08:08:43;;;;;;;14.90;4.00;;;;;;;29.73;53.83;98778.25;5043720;28;20242;-82
2022/05/28 08:11:12;;;;;;;12.02;4.50;;;;;;;30.03;54.02;98774.44;5044184;28;20215;-81
2022/05/28 08:13:39;;;;;;;11.50;3.60;;;;;;;30.28;52.45;98771.31;5045310;28;20242;-80
2022/05/28 08:16:06;;;;;;;11.88;3.67;;;;;;;30.42;49.41;98765.41;5056787;28;20205;-80
2022/05/28 08:18:36;;;;;;;14.00;3.65;;;;;;;30.64;51.80;98770.63;5064608;28;20249;-81
2022/05/28 08:23:48;;;;;;;11.30;3.17;;;;;;;30.90;48.52;98755.84;5064822;28;20312;-79
2022/05/28 08:26:19;;;;;;;16.35;5.22;;;;;;;31.20;50.27;98757.13;5064167;28;20684;-79
2022/05/28 08:28:47;;;;;;;16.73;4.80;;;;;;;31.32;44.45;98755.09;5064037;28;20321;-81
2022/05/28 08:31:15;;;;;;;15.48;5.82;;;;;;;31.43;45.30;98755.19;5064476;28;20724;-82
2022/05/28 08:33:42;;;;;;;15.82;3.33;;;;;;;31.42;42.51;98761.53;5064052;28;20331;-78
2022/05/28 08:36:10;;;;;;;16.33;3.53;;;;;;;31.48;42.58;98757.88;5065422;28;20681;-80
2022/05/28 08:38:37;;;;;;;15.48;3.30;;;;;;;31.57;44.20;98762.41;5063768;28;20241;-82
2022/05/28 08:41:08;;;;;;;13.10;3.60;;;;;;;31.91;44.93;98766.56;5055435;28;20294;-79
2022/05/28 08:43:39;;;;;;;17.45;3.35;;;;;;;31.93;42.78;98775.03;5052358;28;20232;-82
2022/05/28 08:46:11;;;;;;;12.50;3.20;;;;;;;31.88;43.06;98772.34;5052408;28;20203;-81
2022/05/28 08:48:44;;;;;;;16.88;3.33;;;;;;;32.11;44.30;98771.94;5051938;28;20241;-80
2022/05/28 08:51:15;;;;;;;10.18;3.42;;;;;;;32.13;40.27;98767.19;5061146;28;20797;-81
2022/05/28 08:53:50;;;;;;;10.63;3.22;;;;;;;32.09;43.22;98766.13;5062261;28;20239;-80
2022/05/28 08:56:20;;;;;;;18.23;4.03;;;;;;;32.20;42.69;98759.81;5054641;28;20704;-81
2022/05/28 08:58:50;;;;;;;18.02;3.90;;;;;;;32.40;42.24;98760.91;5049713;28;20642;-80
2022/05/28 09:01:20;;;;;;;30.63;4.25;;;;;;;32.41;42.20;98763.31;5052518;28;20215;-82
2022/05/28 09:03:50;;;;;;;17.27;4.13;;;;;;;32.66;41.60;98753.81;5053790;28;20246;-81
2022/05/28 09:06:20;;;;;;;12.50;4.13;;;;;;;32.78;42.27;98762.28;5052809;28;20656;-82
2022/05/28 09:08:51;;;;;;;14.07;3.87;;;;;;;32.93;41.98;98753.59;5056633;28;20462;-82
2022/05/28 09:11:24;;;;;;;13.93;4.03;;;;;;;33.17;40.89;98753.06;5056835;28;20645;-82
2022/05/28 09:13:54;;;;;;;12.52;3.55;;;;;;;33.09;39.92;98752.53;5051752;28;20227;-82
2022/05/28 09:16:25;;;;;;;13.75;3.70;;;;;;;33.22;40.16;98751.22;5050269;28;20218;-82
2022/05/28 09:18:54;;;;;;;11.95;3.47;;;;;;;33.28;43.11;98750.13;5053719;28;20239;-83
2022/05/28 09:21:22;;;;;;;15.25;3.97;;;;;;;33.36;39.83;98736.31;5052381;28;20211;-81
2022/05/28 09:23:54;;;;;;;8.95;2.90;;;;;;;33.46;37.77;98735.50;5055598;28;20230;-80
2022/05/28 09:26:33;;;;;;;10.85;4.00;;;;;;;33.25;40.52;98723.34;5057035;28;20731;-82
2022/05/28 09:29:17;;;;;;;12.55;3.60;;;;;;;33.24;38.86;98729.72;5058240;28;20234;-81
2022/05/28 09:31:56;;;;;;;10.70;3.47;;;;;;;33.59;38.67;98729.66;5055969;28;20212;-82
2022/05/28 09:34:33;;;;;;;13.27;3.50;;;;;;;33.79;36.11;98741.25;5056098;28;20237;-81
2022/05/28 09:37:14;;;;;;;9.25;3.47;;;;;;;33.95;35.89;98742.78;5055000;28;20522;-80
2022/05/28 09:39:49;;;;;;;20.40;4.05;;;;;;;34.02;36.13;98743.28;5057064;28;20641;-81
2022/05/28 09:42:25;;;;;;;10.00;3.17;;;;;;;34.20;36.51;98738.44;5056408;28;20242;-81
2022/05/28 09:45:08;;;;;;;10.05;3.22;;;;;;;33.74;35.42;98725.38;5055996;28;20325;-81
2022/05/28 09:47:46;;;;;;;10.40;3.00;;;;;;;33.49;34.53;98726.22;5056702;28;20214;-82
2022/05/28 09:50:22;;;;;;;18.65;5.43;;;;;;;33.83;35.03;98723.72;5055533;28;20234;-80
2022/05/28 09:55:59;;;;;;;22.80;3.78;;;;;;;34.14;35.02;98715.66;5067001;28;20892;-81
2022/05/28 09:58:31;;;;;;;12.77;4.22;;;;;;;34.06;36.01;98722.31;5066700;28;20740;-80
2022/05/28 10:01:09;;;;;;;16.10;3.67;;;;;;;33.91;36.39;98715.22;5066862;28;20374;-83
2022/05/28 10:06:27;;;;;;;16.83;4.15;;;;;;;34.15;38.38;98714.59;5066689;28;20218;-83
2022/05/28 10:08:53;;;;;;;15.43;3.80;;;;;;;34.36;36.08;98705.44;5066349;28;20271;-80
2022/05/28 10:11:22;;;;;;;17.05;4.97;;;;;;;34.32;35.52;98709.69;5066513;28;20209;-81
2022/05/28 10:13:52;;;;;;;15.55;3.78;;;;;;;34.16;35.02;98711.66;5066335;28;20625;-80
2022/05/28 10:16:23;;;;;;;12.55;3.83;;;;;;;34.40;36.60;98711.75;5066126;28;20207;-83
2022/05/28 10:18:55;;;;;;;13.50;3.75;;;;;;;34.25;36.26;98703.91;5066237;28;20904;-83
2022/05/28 10:21:29;;;;;;;16.02;3.67;;;;;;;33.91;36.17;98704.59;5059327;28;20619;-81
2022/05/28 10:27:27;;;;;;;13.25;3.95;;;;;;;33.94;36.88;98701.41;5058034;28;20314;-82
2022/05/28 10:29:57;;;;;;;11.27;3.22;;;;;;;34.16;37.73;98694.97;5079097;28;20221;-83
2022/05/28 10:32:31;;;;;;;16.98;3.78;;;;;;;34.18;37.56;98698.09;5080477;28;20218;-82
2022/05/28 10:35:01;;;;;;;16.38;3.60;;;;;;;34.51;34.60;98690.47;5077607;28;20237;-83
2022/05/28 10:37:28;;;;;;;16.45;3.80;;;;;;;34.43;33.34;98694.50;5078318;28;20265;-80
2022/05/28 10:40:08;;;;;;;15.15;3.53;;;;;;;34.57;34.29;98690.16;5066255;28;20234;-81
2022/05/28 10:42:37;;;;;;;11.30;3.30;;;;;;;34.86;35.51;98682.22;5080732;28;20202;-78
2022/05/28 10:45:05;;;;;;;11.73;3.10;;;;;;;34.56;33.16;98677.97;5085637;28;20244;-79
2022/05/28 10:48:02;;;;;;;14.60;3.35;;;;;;;34.40;32.26;98679.91;5085485;28;20542;-81
2022/05/28 10:50:38;;;;;;;11.40;3.22;;;;;;;34.37;33.13;98683.13;5066080;28;20454;-83
2022/05/28 10:53:14;;;;;;;11.82;3.70;;;;;;;34.26;33.26;98678.94;5062473;28;20887;-86
2022/05/28 10:55:56;;;;;;;7.85;3.17;;;;;;;34.03;33.95;98689.19;5064433;28;20214;-83
2022/05/28 10:58:34;;;;;;;12.38;3.58;;;;;;;33.98;35.85;98683.88;5062544;28;20227;-79
2022/05/28 11:01:03;;;;;;;15.02;3.50;;;;;;;34.29;34.41;98670.44;5063849;28;20883;-83
2022/05/28 11:03:51;;;;;;;12.32;3.53;;;;;;;34.37;33.77;98667.19;5078912;28;20703;-81
2022/05/28 11:07:02;;;;;;;13.68;3.17;;;;;;;34.54;33.61;98660.72;5085826;28;20206;-84
2022/05/28 11:09:41;;;;;;;11.30;3.33;;;;;;;34.56;33.82;98661.22;5086652;28;20326;-83
2022/05/28 11:12:22;;;;;;;9.40;3.10;;;;;;;34.76;34.68;98650.44;5080239;28;20293;-81
2022/05/28 11:15:04;;;;;;;11.15;3.03;;;;;;;33.94;33.12;98648.34;5066617;28;20235;-80
2022/05/28 11:17:46;;;;;;;12.50;3.70;;;;;;;33.78;34.30;98646.88;5069349;28;20214;-82
2022/05/28 11:20:22;;;;;;;13.85;3.17;;;;;;;33.78;34.52;98637.06;5087074;28;20746;-81
2022/05/28 11:23:20;;;;;;;10.98;3.20;;;;;;;33.81;36.29;98630.41;5067169;28;20215;-80
2022/05/28 11:26:00;;;;;;;8.45;2.88;;;;;;;33.94;35.43;98629.78;5066466;28;20215;-79
2022/05/28 11:28:48;;;;;;;12.57;3.00;;;;;;;34.17;34.80;98627.53;5071533;28;20222;-80
2022/05/28 11:31:31;;;;;;;11.02;2.78;;;;;;;34.15;35.26;98624.38;5084282;28;20202;-82
2022/05/28 11:34:02;;;;;;;9.50;3.25;;;;;;;33.85;33.21;98626.13;5086569;28;20860;-80
2022/05/28 11:36:38;;;;;;;11.75;2.90;;;;;;;34.16;34.61;98615.34;5080995;28;20213;-79
2022/05/28 11:39:09;;;;;;;11.93;5.05;;;;;;;33.94;33.42;98624.47;5066408;28;20226;-79
2022/05/28 11:41:42;;;;;;;12.63;6.05;;;;;;;34.05;31.17;98624.44;5066251;28;20234;-78
2022/05/28 11:44:14;;;;;;;11.95;3.20;;;;;;;34.07;32.80;98617.03;5066140;28;20740;-80
2022/05/28 11:46:48;;;;;;;8.05;2.75;;;;;;;33.79;33.65;98622.72;5071237;28;20680;-81
2022/05/28 11:52:12;;;;;;;10.10;2.75;;;;;;;33.94;34.04;98608.56;5086319;28;20588;-79
2022/05/28 11:54:43;;;;;;;9.25;2.67;;;;;;;34.22;33.65;98601.75;5086701;28;20225;-79
2022/05/28 11:57:20;;;;;;;9.63;3.00;;;;;;;34.19;32.65;98599.66;5084438;28;20210;-80
2022/05/28 11:59:48;;;;;;;11.75;3.00;;;;;;;34.25;33.59;98590.59;5086344;28;20239;-80